createdAt,value
2017-04-15T00:00:48.013Z,7.90
2017-04-15T00:01:47.719Z,7.90
2017-04-15T00:02:47.369Z,7.90
2017-04-15T00:03:47.132Z,7.90
2017-04-15T00:04:46.805Z,7.90
2017-04-15T00:05:46.473Z,8.00
2017-04-15T00:06:46.251Z,8.00
2017-04-15T00:07:45.956Z,8.00
2017-04-15T00:08:45.713Z,8.00
2017-04-15T00:09:45.390Z,8.00
2017-04-15T00:10:45.094Z,8.00
2017-04-15T00:11:44.805Z,8.00
2017-04-15T00:12:44.577Z,8.00
2017-04-15T00:13:44.245Z,8.00
2017-04-15T00:14:43.948Z,8.00
2017-04-15T00:15:43.647Z,8.00
2017-04-15T00:16:43.387Z,8.00
2017-04-15T00:17:43.786Z,8.00
2017-04-15T00:18:43.468Z,8.00
2017-04-15T00:19:43.132Z,8.00
2017-04-15T00:20:42.823Z,8.00
2017-04-15T00:21:42.497Z,8.10
2017-04-15T00:22:42.186Z,8.20
2017-04-15T00:23:41.844Z,8.30
2017-04-15T00:24:41.539Z,8.20
2017-04-15T00:25:41.285Z,8.20
2017-04-15T00:26:41.008Z,8.10
2017-04-15T00:27:40.678Z,8.10
2017-04-15T00:28:41.076Z,8.10
2017-04-15T00:29:40.771Z,8.20
2017-04-15T00:30:40.489Z,8.10
2017-04-15T00:31:40.163Z,8.10
2017-04-15T00:32:39.889Z,8.10
2017-04-15T00:33:39.569Z,8.00
2017-04-15T00:34:39.242Z,8.10
2017-04-15T00:35:38.912Z,8.00
2017-04-15T00:36:38.629Z,7.90
2017-04-15T00:37:38.272Z,7.90
2017-04-15T00:38:38.101Z,7.90
2017-04-15T00:39:52.378Z,7.90
2017-04-15T00:40:52.118Z,7.90
2017-04-15T00:41:51.846Z,7.90
2017-04-15T00:42:51.493Z,8.00
2017-04-15T00:43:51.147Z,8.00
2017-04-15T00:44:50.815Z,8.00
2017-04-15T00:45:50.531Z,8.00
2017-04-15T00:46:50.172Z,8.00
2017-04-15T00:47:49.932Z,8.10
2017-04-15T00:48:49.600Z,8.00
2017-04-15T00:49:49.278Z,8.00
2017-04-15T00:50:48.949Z,8.10
2017-04-15T00:51:48.612Z,8.10
2017-04-15T00:52:48.303Z,8.00
2017-04-15T00:53:47.999Z,8.10
2017-04-15T00:54:47.699Z,8.00
2017-04-15T00:55:47.375Z,8.00
2017-04-15T00:56:47.015Z,8.00
2017-04-15T00:57:46.696Z,8.10
2017-04-15T00:58:46.327Z,8.10
2017-04-15T00:59:46.038Z,8.10
2017-04-15T01:00:45.713Z,8.20
2017-04-15T01:01:45.397Z,8.20
2017-04-15T01:02:45.179Z,8.10
2017-04-15T01:03:44.874Z,8.20
2017-04-15T01:04:44.553Z,8.20
2017-04-15T01:05:44.297Z,8.10
2017-04-15T01:06:44.720Z,8.00
2017-04-15T01:07:44.381Z,8.10
2017-04-15T01:08:44.072Z,8.10
2017-04-15T01:09:43.735Z,8.10
2017-04-15T01:10:43.484Z,8.10
2017-04-15T01:11:43.203Z,8.10
2017-04-15T01:12:42.908Z,8.00
2017-04-15T01:13:42.684Z,8.00
2017-04-15T01:14:42.347Z,8.00
2017-04-15T01:15:42.016Z,7.90
2017-04-15T01:16:41.670Z,8.00
2017-04-15T01:17:41.410Z,8.00
2017-04-15T01:18:41.107Z,8.00
2017-04-15T01:19:40.871Z,8.00
2017-04-15T01:20:40.564Z,8.10
2017-04-15T01:21:40.299Z,8.10
2017-04-15T01:22:40.719Z,8.10
2017-04-15T01:23:40.457Z,8.20
2017-04-15T01:24:40.127Z,8.20
2017-04-15T01:25:39.820Z,8.20
2017-04-15T01:26:39.574Z,8.20
2017-04-15T01:27:39.242Z,8.20
2017-04-15T01:28:38.905Z,8.20
2017-04-15T01:29:38.665Z,8.20
2017-04-15T01:30:38.393Z,8.10
2017-04-15T01:31:38.052Z,8.20
2017-04-15T01:32:37.765Z,8.20
2017-04-15T01:33:37.451Z,8.30
2017-04-15T01:34:37.109Z,8.20
2017-04-15T01:35:36.845Z,8.30
2017-04-15T01:36:36.564Z,8.30
2017-04-15T01:37:36.358Z,8.20
2017-04-15T01:38:36.021Z,8.30
2017-04-15T01:39:35.757Z,8.30
2017-04-15T01:40:36.248Z,8.30
2017-04-15T01:41:35.942Z,8.30
2017-04-15T01:42:35.610Z,8.30
2017-04-15T01:43:36.024Z,8.30
2017-04-15T01:44:35.788Z,8.30
2017-04-15T01:45:36.231Z,8.30
2017-04-15T01:46:35.920Z,8.20
2017-04-15T01:47:35.615Z,8.20
2017-04-15T01:48:35.277Z,8.20
2017-04-15T01:49:34.903Z,8.20
2017-04-15T01:50:34.614Z,8.20
2017-04-15T01:51:34.312Z,8.20
2017-04-15T01:52:33.970Z,8.30
2017-04-15T01:53:33.767Z,8.20
2017-04-15T01:54:33.504Z,8.20
2017-04-15T01:55:33.192Z,8.20
2017-04-15T01:56:32.847Z,8.20
2017-04-15T01:57:32.540Z,8.20
2017-04-15T01:58:32.283Z,8.20
2017-04-15T01:59:31.928Z,8.20
2017-04-15T02:00:31.573Z,8.20
2017-04-15T02:01:31.963Z,8.20
2017-04-15T02:02:31.628Z,8.30
2017-04-15T02:03:31.330Z,8.20
2017-04-15T02:04:30.991Z,8.20
2017-04-15T02:05:30.687Z,8.10
2017-04-15T02:06:30.381Z,8.10
2017-04-15T02:07:30.065Z,8.20
2017-04-15T02:08:29.765Z,8.20
2017-04-15T02:09:29.489Z,8.20
2017-04-15T02:10:29.183Z,8.20
2017-04-15T02:11:28.829Z,8.20
2017-04-15T02:12:28.483Z,8.20
2017-04-15T02:13:28.265Z,8.20
2017-04-15T02:14:28.776Z,8.20
2017-04-15T02:15:28.496Z,8.30
2017-04-15T02:16:28.191Z,8.20
2017-04-15T02:17:27.903Z,8.20
2017-04-15T02:18:27.550Z,8.20
2017-04-15T02:19:27.261Z,8.20
2017-04-15T02:20:26.972Z,8.20
2017-04-15T02:21:27.512Z,8.20
2017-04-15T02:22:27.169Z,8.30
2017-04-15T02:23:26.870Z,8.30
2017-04-15T02:24:26.604Z,8.30
2017-04-15T02:25:26.290Z,8.30
2017-04-15T02:26:25.955Z,8.40
2017-04-15T02:27:25.653Z,8.30
2017-04-15T02:28:25.308Z,8.40
2017-04-15T02:29:24.981Z,8.40
2017-04-15T02:30:24.653Z,8.40
2017-04-15T02:31:24.296Z,8.40
2017-04-15T02:32:24.070Z,8.30
2017-04-15T02:33:23.754Z,8.30
2017-04-15T02:34:23.412Z,8.40
2017-04-15T02:35:23.091Z,8.40
2017-04-15T02:36:22.741Z,8.40
2017-04-15T02:37:22.409Z,8.40
2017-04-15T02:38:22.074Z,8.40
2017-04-15T02:39:21.779Z,8.40
2017-04-15T02:40:21.435Z,8.40
2017-04-15T02:41:21.096Z,8.30
2017-04-15T02:42:20.790Z,8.40
2017-04-15T02:43:20.415Z,8.40
2017-04-15T02:44:20.051Z,8.40
2017-04-15T02:45:19.862Z,8.40
2017-04-15T02:46:19.642Z,8.50
2017-04-15T02:47:20.022Z,8.50
2017-04-15T02:48:19.685Z,8.50
2017-04-15T02:49:19.352Z,8.40
2017-04-15T02:50:19.006Z,8.50
2017-04-15T02:51:18.712Z,8.50
2017-04-15T02:52:18.546Z,8.50
2017-04-15T02:53:18.246Z,8.40
2017-04-15T02:54:17.938Z,8.50
2017-04-15T02:55:18.355Z,8.40
2017-04-15T02:56:18.093Z,8.50
2017-04-15T02:57:17.722Z,8.50
2017-04-15T02:58:17.382Z,8.50
2017-04-15T02:59:17.024Z,8.50
2017-04-15T03:00:16.801Z,8.50
2017-04-15T03:01:16.534Z,8.50
2017-04-15T03:02:16.225Z,8.50
2017-04-15T03:03:15.896Z,8.50
2017-04-15T03:04:15.645Z,8.50
2017-04-15T03:05:16.096Z,8.50
2017-04-15T03:06:15.811Z,8.50
2017-04-15T03:07:15.460Z,8.50
2017-04-15T03:08:15.158Z,8.50
2017-04-15T03:09:14.829Z,8.50
2017-04-15T03:10:14.504Z,8.60
2017-04-15T03:11:14.249Z,8.60
2017-04-15T03:12:14.635Z,8.60
2017-04-15T03:13:14.301Z,8.50
2017-04-15T03:14:14.061Z,8.60
2017-04-15T03:15:13.819Z,8.60
2017-04-15T03:16:13.457Z,8.50
2017-04-15T03:17:13.145Z,8.50
2017-04-15T03:18:12.856Z,8.60
2017-04-15T03:19:12.541Z,8.60
2017-04-15T03:20:12.273Z,8.60
2017-04-15T03:21:11.946Z,8.60
2017-04-15T03:22:11.630Z,8.60
2017-04-15T03:23:11.286Z,8.60
2017-04-15T03:24:10.943Z,8.60
2017-04-15T03:25:11.337Z,8.60
2017-04-15T03:26:11.054Z,8.60
2017-04-15T03:27:10.757Z,8.60
2017-04-15T03:28:10.373Z,8.60
2017-04-15T03:29:10.051Z,8.60
2017-04-15T03:30:09.720Z,8.60
2017-04-15T03:31:09.398Z,8.70
2017-04-15T03:32:09.109Z,8.70
2017-04-15T03:33:08.842Z,8.70
2017-04-15T03:34:08.520Z,8.70
2017-04-15T03:35:08.250Z,8.70
2017-04-15T03:36:07.908Z,8.70
2017-04-15T03:37:07.611Z,8.80
2017-04-15T03:38:07.336Z,8.70
2017-04-15T03:39:06.998Z,8.80
2017-04-15T03:40:06.732Z,8.80
2017-04-15T03:41:06.374Z,8.80
2017-04-15T03:42:06.034Z,8.80
2017-04-15T03:43:05.708Z,8.80
2017-04-15T03:44:05.421Z,8.80
2017-04-15T03:45:05.109Z,8.80
2017-04-15T03:46:04.807Z,8.70
2017-04-15T03:47:04.496Z,8.80
2017-04-15T03:48:04.217Z,8.70
2017-04-15T03:49:03.924Z,8.70
2017-04-15T03:50:03.613Z,8.80
2017-04-15T03:51:03.362Z,8.70
2017-04-15T03:52:03.010Z,8.70
2017-04-15T03:53:02.665Z,8.70
2017-04-15T03:54:02.312Z,8.70
2017-04-15T03:55:01.975Z,8.70
2017-04-15T03:56:01.689Z,8.70
2017-04-15T03:57:01.354Z,8.70
2017-04-15T03:58:01.025Z,8.70
2017-04-15T03:59:00.722Z,8.70
2017-04-15T04:00:00.595Z,8.70
2017-04-15T04:01:00.262Z,8.70
2017-04-15T04:01:59.949Z,8.70
2017-04-15T04:02:59.694Z,8.70
2017-04-15T04:04:00.132Z,8.70
2017-04-15T04:04:59.817Z,8.70
2017-04-15T04:05:59.470Z,8.70
2017-04-15T04:06:59.163Z,8.80
2017-04-15T04:07:58.916Z,8.80
2017-04-15T04:08:58.699Z,8.80
2017-04-15T04:09:58.408Z,8.80
2017-04-15T04:10:58.079Z,8.80
2017-04-15T04:11:57.733Z,8.90
2017-04-15T04:12:57.397Z,8.90
2017-04-15T04:13:57.113Z,8.90
2017-04-15T04:14:56.796Z,8.80
2017-04-15T04:15:56.522Z,8.80
2017-04-15T04:16:56.204Z,8.80
2017-04-15T04:17:55.856Z,8.80
2017-04-15T04:18:55.537Z,8.80
2017-04-15T04:19:55.528Z,8.80
2017-04-15T04:20:55.173Z,8.80
2017-04-15T04:21:55.587Z,8.80
2017-04-15T04:22:56.115Z,8.80
2017-04-15T04:23:55.769Z,8.80
2017-04-15T04:24:55.513Z,8.80
2017-04-15T04:25:55.133Z,8.80
2017-04-15T04:26:54.908Z,8.80
2017-04-15T04:27:54.576Z,8.80
2017-04-15T04:28:54.232Z,8.90
2017-04-15T04:29:53.847Z,8.90
2017-04-15T04:30:53.536Z,8.90
2017-04-15T04:31:53.189Z,8.90
2017-04-15T04:32:52.864Z,8.90
2017-04-15T04:33:52.581Z,8.90
2017-04-15T04:34:52.318Z,8.90
2017-04-15T04:35:52.035Z,8.90
2017-04-15T04:36:51.819Z,8.90
2017-04-15T04:37:52.264Z,8.90
2017-04-15T04:38:52.006Z,8.90
2017-04-15T04:39:51.698Z,8.90
2017-04-15T04:40:51.408Z,8.90
2017-04-15T04:41:51.106Z,8.90
2017-04-15T04:42:50.854Z,8.90
2017-04-15T04:43:50.513Z,8.90
2017-04-15T04:44:50.168Z,8.90
2017-04-15T04:45:49.846Z,8.90
2017-04-15T04:46:49.553Z,8.90
2017-04-15T04:47:49.208Z,8.90
2017-04-15T04:48:48.933Z,9.00
2017-04-15T04:49:48.596Z,8.90
2017-04-15T04:50:48.271Z,9.00
2017-04-15T04:51:47.930Z,9.00
2017-04-15T04:52:47.542Z,9.00
2017-04-15T04:53:47.204Z,9.00
2017-04-15T04:54:46.900Z,9.00
2017-04-15T04:55:46.673Z,9.00
2017-04-15T04:56:46.353Z,9.00
2017-04-15T04:57:46.029Z,9.10
2017-04-15T04:58:45.656Z,9.10
2017-04-15T04:59:45.300Z,9.10
2017-04-15T05:00:45.127Z,9.20
2017-04-15T05:01:44.861Z,9.20
2017-04-15T05:02:45.258Z,9.20
2017-04-15T05:03:45.011Z,9.20
2017-04-15T05:04:44.779Z,9.20
2017-04-15T05:05:44.483Z,9.20
2017-04-15T05:06:44.160Z,9.30
2017-04-15T05:07:43.834Z,9.30
2017-04-15T05:08:43.506Z,9.40
2017-04-15T05:09:43.171Z,9.40
2017-04-15T05:10:42.811Z,9.50
2017-04-15T05:11:42.764Z,9.50
2017-04-15T05:12:42.453Z,9.50
2017-04-15T05:13:42.112Z,9.60
2017-04-15T05:14:41.786Z,9.60
2017-04-15T05:15:41.583Z,9.50
2017-04-15T05:16:41.284Z,9.60
2017-04-15T05:17:41.019Z,9.60
2017-04-15T05:18:40.701Z,9.60
2017-04-15T05:19:40.361Z,9.60
2017-04-15T05:20:40.066Z,9.70
2017-04-15T05:21:39.853Z,9.70
2017-04-15T05:22:40.298Z,9.70
2017-04-15T05:23:40.047Z,9.70
2017-04-15T05:24:39.767Z,9.70
2017-04-15T05:25:39.456Z,9.70
2017-04-15T05:26:39.164Z,9.70
2017-04-15T05:27:38.814Z,9.70
2017-04-15T05:28:38.521Z,9.80
2017-04-15T05:29:38.212Z,9.70
2017-04-15T05:30:37.895Z,9.80
2017-04-15T05:31:37.570Z,9.80
2017-04-15T05:32:37.220Z,9.80
2017-04-15T05:33:36.899Z,9.90
2017-04-15T05:34:36.636Z,9.90
2017-04-15T05:35:36.316Z,9.90
2017-04-15T05:36:35.977Z,10.00
2017-04-15T05:37:35.747Z,10.00
2017-04-15T05:38:35.462Z,10.00
2017-04-15T05:39:35.164Z,10.00
2017-04-15T05:40:34.877Z,10.00
2017-04-15T05:41:34.543Z,10.10
2017-04-15T05:42:34.162Z,10.10
2017-04-15T05:43:33.833Z,10.20
2017-04-15T05:44:33.496Z,10.30
2017-04-15T05:45:33.187Z,10.30
2017-04-15T05:46:32.980Z,10.40
2017-04-15T05:47:32.664Z,10.50
2017-04-15T05:48:32.314Z,10.60
2017-04-15T05:49:31.967Z,10.80
2017-04-15T05:50:31.597Z,11.00
2017-04-15T05:51:31.262Z,11.10
2017-04-15T05:52:30.972Z,11.40
2017-04-15T05:53:30.652Z,11.50
2017-04-15T05:54:30.309Z,11.70
2017-04-15T05:55:29.974Z,12.00
2017-04-15T05:56:29.703Z,12.30
2017-04-15T05:57:29.368Z,12.60
2017-04-15T05:58:29.111Z,12.80
2017-04-15T05:59:28.790Z,13.10
2017-04-15T06:00:28.499Z,13.30
2017-04-15T06:01:28.219Z,13.40
2017-04-15T06:02:27.889Z,13.50
2017-04-15T06:03:27.567Z,13.40
2017-04-15T06:04:27.277Z,13.40
2017-04-15T06:05:26.943Z,13.30
2017-04-15T06:06:26.564Z,13.30
2017-04-15T06:07:26.336Z,13.20
2017-04-15T06:08:26.090Z,13.20
2017-04-15T06:09:25.755Z,13.10
2017-04-15T06:10:25.439Z,13.10
2017-04-15T06:11:25.076Z,13.00
2017-04-15T06:12:24.751Z,12.80
2017-04-15T06:13:24.474Z,12.70
2017-04-15T06:14:24.876Z,12.70
2017-04-15T06:15:24.587Z,12.70
2017-04-15T06:16:24.307Z,12.70
2017-04-15T06:17:24.019Z,12.60
2017-04-15T06:18:23.653Z,12.50
2017-04-15T06:19:23.318Z,12.50
2017-04-15T06:20:22.957Z,12.50
2017-04-15T06:21:22.634Z,12.40
2017-04-15T06:22:22.361Z,12.30
2017-04-15T06:23:22.009Z,12.30
2017-04-15T06:24:21.645Z,12.30
2017-04-15T06:25:21.316Z,12.30
2017-04-15T06:26:20.968Z,12.30
2017-04-15T06:27:20.615Z,12.10
2017-04-15T06:28:20.329Z,12.10
2017-04-15T06:29:20.010Z,12.10
2017-04-15T06:30:19.673Z,12.10
2017-04-15T06:31:19.325Z,12.10
2017-04-15T06:32:19.080Z,12.10
2017-04-15T06:33:18.740Z,12.10
2017-04-15T06:34:18.424Z,12.10
2017-04-15T06:35:18.100Z,12.00
2017-04-15T06:36:17.778Z,12.00
2017-04-15T06:37:17.467Z,11.80
2017-04-15T06:38:17.154Z,11.70
2017-04-15T06:39:16.801Z,11.80
2017-04-15T06:40:16.631Z,11.80
2017-04-15T06:41:16.308Z,11.80
2017-04-15T06:42:15.965Z,11.70
2017-04-15T06:43:15.604Z,11.70
2017-04-15T06:44:15.257Z,11.70
2017-04-15T06:45:14.917Z,11.70
2017-04-15T06:46:14.634Z,11.80
2017-04-15T06:47:14.315Z,11.80
2017-04-15T06:48:14.023Z,11.80
2017-04-15T06:49:13.781Z,11.80
2017-04-15T06:50:13.490Z,11.80
2017-04-15T06:51:13.144Z,11.90
2017-04-15T06:52:12.828Z,12.00
2017-04-15T06:53:12.464Z,12.00
2017-04-15T06:54:12.539Z,12.00
2017-04-15T06:55:12.202Z,12.10
2017-04-15T06:56:11.849Z,12.20
2017-04-15T06:57:11.491Z,12.30
2017-04-15T06:58:11.212Z,12.30
2017-04-15T06:59:10.887Z,12.30
2017-04-15T07:00:10.536Z,12.20
2017-04-15T07:01:10.219Z,12.20
2017-04-15T07:02:09.874Z,12.20
2017-04-15T07:03:09.563Z,12.30
2017-04-15T07:04:09.250Z,12.30
2017-04-15T07:05:08.995Z,12.30
2017-04-15T07:06:08.638Z,12.30
2017-04-15T07:07:08.333Z,12.20
2017-04-15T07:08:08.089Z,12.20
2017-04-15T07:09:07.754Z,12.20
2017-04-15T07:10:07.547Z,12.20
2017-04-15T07:11:07.214Z,12.30
2017-04-15T07:12:06.888Z,12.30
2017-04-15T07:13:06.572Z,12.30
2017-04-15T07:14:06.232Z,12.30
2017-04-15T07:15:05.944Z,12.40
2017-04-15T07:16:05.643Z,12.50
2017-04-15T07:17:05.293Z,12.60
2017-04-15T07:18:05.043Z,12.70
2017-04-15T07:19:04.693Z,12.70
2017-04-15T07:20:04.360Z,12.80
2017-04-15T07:21:04.065Z,12.90
2017-04-15T07:22:04.501Z,12.90
2017-04-15T07:23:04.170Z,13.10
2017-04-15T07:24:03.854Z,13.10
2017-04-15T07:25:03.580Z,13.20
2017-04-15T07:26:03.288Z,13.30
2017-04-15T07:27:02.993Z,13.40
2017-04-15T07:28:02.728Z,13.40
2017-04-15T07:29:02.420Z,13.50
2017-04-15T07:30:02.087Z,13.60
2017-04-15T07:31:01.831Z,13.70
2017-04-15T07:32:01.504Z,13.90
2017-04-15T07:33:01.183Z,14.00
2017-04-15T07:34:00.888Z,13.90
2017-04-15T07:35:00.568Z,14.00
2017-04-15T07:36:00.245Z,14.10
2017-04-15T07:36:59.901Z,14.20
2017-04-15T07:37:59.620Z,14.30
2017-04-15T07:38:59.329Z,14.20
2017-04-15T07:39:59.045Z,14.40
2017-04-15T07:40:58.721Z,14.60
2017-04-15T07:41:58.398Z,14.70
2017-04-15T07:42:58.064Z,14.80
2017-04-15T07:43:57.757Z,14.80
2017-04-15T07:44:57.404Z,14.90
2017-04-15T07:45:57.216Z,15.00
2017-04-15T07:46:56.877Z,15.20
2017-04-15T07:47:56.540Z,15.20
2017-04-15T07:48:56.180Z,15.20
2017-04-15T07:49:55.848Z,15.40
2017-04-15T07:50:55.488Z,15.40
2017-04-15T07:51:55.186Z,15.40
2017-04-15T07:52:54.840Z,15.50
2017-04-15T07:53:54.511Z,15.60
2017-04-15T07:54:54.166Z,15.50
2017-04-15T07:55:53.820Z,15.60
2017-04-15T07:56:53.479Z,15.60
2017-04-15T07:57:53.177Z,15.60
2017-04-15T07:58:52.810Z,15.60
2017-04-15T07:59:53.198Z,15.70
2017-04-15T08:00:52.889Z,15.80
2017-04-15T08:01:52.515Z,16.00
2017-04-15T08:02:52.163Z,16.10
2017-04-15T08:03:51.851Z,16.00
2017-04-15T08:04:51.494Z,16.00
2017-04-15T08:05:51.164Z,16.10
2017-04-15T08:06:50.823Z,16.00
2017-04-15T08:07:50.472Z,15.90
2017-04-15T08:08:50.181Z,16.00
2017-04-15T08:09:49.916Z,16.10
2017-04-15T08:10:49.695Z,16.20
2017-04-15T08:11:50.095Z,16.10
2017-04-15T08:12:49.763Z,16.20
2017-04-15T08:13:49.387Z,16.40
2017-04-15T08:14:49.053Z,16.40
2017-04-15T08:15:48.747Z,16.70
2017-04-15T08:16:48.503Z,16.70
2017-04-15T08:17:48.159Z,17.10
2017-04-15T08:18:47.883Z,17.30
2017-04-15T08:19:47.551Z,17.40
2017-04-15T08:20:47.180Z,17.50
2017-04-15T08:21:46.893Z,17.70
2017-04-15T08:22:46.571Z,17.80
2017-04-15T08:23:46.221Z,18.20
2017-04-15T08:24:45.891Z,18.20
2017-04-15T08:25:45.534Z,18.40
2017-04-15T08:26:45.280Z,18.30
2017-04-15T08:27:45.018Z,18.40
2017-04-15T08:28:44.659Z,18.40
2017-04-15T08:29:44.306Z,18.60
2017-04-15T08:30:43.971Z,18.90
2017-04-15T08:31:43.616Z,19.10
2017-04-15T08:32:43.311Z,19.10
2017-04-15T08:33:43.065Z,19.00
2017-04-15T08:34:42.707Z,19.20
2017-04-15T08:35:42.332Z,19.30
2017-04-15T08:36:42.058Z,19.50
2017-04-15T08:37:42.444Z,19.60
2017-04-15T08:38:42.079Z,19.50
2017-04-15T08:39:42.073Z,19.60
2017-04-15T08:40:42.463Z,19.70
2017-04-15T08:41:42.164Z,19.70
2017-04-15T08:42:41.834Z,19.70
2017-04-15T08:43:41.585Z,19.60
2017-04-15T08:44:41.299Z,19.50
2017-04-15T08:45:41.070Z,19.60
2017-04-15T08:46:40.732Z,19.60
2017-04-15T08:47:40.480Z,19.70
2017-04-15T08:48:40.115Z,19.60
2017-04-15T08:49:39.785Z,19.40
2017-04-15T08:50:39.497Z,19.30
2017-04-15T08:51:39.144Z,19.50
2017-04-15T08:52:38.825Z,19.40
2017-04-15T08:53:38.571Z,19.50
2017-04-15T08:54:38.223Z,19.90
2017-04-15T08:55:37.852Z,20.10
2017-04-15T08:56:37.520Z,20.30
2017-04-15T08:57:37.143Z,20.10
2017-04-15T08:58:36.767Z,20.00
2017-04-15T08:59:36.385Z,20.10
2017-04-15T09:00:36.010Z,20.00
2017-04-15T09:01:35.685Z,20.10
2017-04-15T09:02:35.446Z,20.20
2017-04-15T09:03:35.077Z,20.20
2017-04-15T09:04:35.125Z,20.20
2017-04-15T09:05:34.764Z,20.20
2017-04-15T09:06:34.390Z,20.30
2017-04-15T09:07:34.018Z,20.20
2017-04-15T09:08:33.889Z,20.10
2017-04-15T09:09:33.518Z,20.20
2017-04-15T09:10:33.134Z,20.00
2017-04-15T09:11:32.757Z,19.60
2017-04-15T09:12:32.401Z,19.30
2017-04-15T09:13:32.062Z,19.10
2017-04-15T09:14:31.776Z,19.00
2017-04-15T09:15:31.414Z,19.00
2017-04-15T09:16:31.788Z,19.20
2017-04-15T09:17:31.472Z,19.40
2017-04-15T09:18:31.162Z,19.70
2017-04-15T09:19:30.903Z,19.70
2017-04-15T09:20:30.580Z,20.00
2017-04-15T09:21:30.212Z,20.30
2017-04-15T09:22:29.844Z,20.30
2017-04-15T09:23:29.456Z,20.10
2017-04-15T09:24:29.115Z,20.30
2017-04-15T09:25:28.813Z,20.10
2017-04-15T09:26:28.497Z,20.00
2017-04-15T09:27:28.149Z,19.70
2017-04-15T09:28:27.790Z,19.60
2017-04-15T09:29:27.504Z,19.60
2017-04-15T09:30:27.201Z,19.50
2017-04-15T09:31:26.806Z,19.40
2017-04-15T09:32:26.516Z,19.40
2017-04-15T09:33:26.208Z,19.30
2017-04-15T09:34:25.854Z,19.10
2017-04-15T09:35:25.593Z,19.00
2017-04-15T09:36:25.276Z,19.00
2017-04-15T09:37:25.041Z,19.10
2017-04-15T09:38:25.016Z,19.10
2017-04-15T09:39:24.673Z,19.20
2017-04-15T09:40:25.207Z,19.40
2017-04-15T09:41:24.831Z,19.60
2017-04-15T09:42:24.457Z,19.80
2017-04-15T09:43:24.116Z,20.00
2017-04-15T09:44:23.793Z,20.20
2017-04-15T09:45:23.498Z,20.30
2017-04-15T09:46:23.128Z,20.30
2017-04-15T09:47:22.753Z,20.30
2017-04-15T09:48:22.422Z,20.40
2017-04-15T09:49:22.065Z,20.40
2017-04-15T09:50:21.767Z,20.10
2017-04-15T09:51:21.428Z,20.20
2017-04-15T09:52:21.180Z,20.40
2017-04-15T09:53:20.817Z,20.70
2017-04-15T09:54:20.475Z,20.90
2017-04-15T09:55:20.119Z,21.00
2017-04-15T09:56:19.776Z,21.10
2017-04-15T09:57:19.410Z,21.00
2017-04-15T09:58:19.788Z,21.00
2017-04-15T09:59:19.424Z,21.10
2017-04-15T10:00:19.052Z,21.30
2017-04-15T10:01:18.695Z,21.40
2017-04-15T10:02:18.398Z,21.20
2017-04-15T10:03:18.487Z,21.20
2017-04-15T10:04:18.107Z,21.00
2017-04-15T10:05:17.733Z,20.80
2017-04-15T10:06:17.574Z,20.60
2017-04-15T10:07:17.232Z,20.30
2017-04-15T10:08:16.919Z,20.30
2017-04-15T10:09:16.558Z,20.30
2017-04-15T10:10:16.184Z,20.20
2017-04-15T10:11:15.865Z,20.30
2017-04-15T10:12:15.511Z,20.40
2017-04-15T10:13:15.148Z,20.70
2017-04-15T10:14:15.617Z,20.80
2017-04-15T10:15:15.254Z,21.00
2017-04-15T10:16:14.901Z,21.10
2017-04-15T10:17:14.531Z,21.20
2017-04-15T10:18:14.260Z,21.20
2017-04-15T10:19:14.640Z,21.10
2017-04-15T10:20:14.487Z,21.10
2017-04-15T10:21:14.138Z,21.00
2017-04-15T10:22:13.792Z,21.20
2017-04-15T10:23:13.432Z,21.40
2017-04-15T10:24:13.140Z,21.20
2017-04-15T10:25:12.793Z,21.20
2017-04-15T10:26:12.489Z,21.10
2017-04-15T10:27:12.096Z,21.20
2017-04-15T10:28:11.742Z,21.20
2017-04-15T10:29:11.453Z,21.20
2017-04-15T10:30:11.088Z,21.20
2017-04-15T10:31:10.720Z,21.20
2017-04-15T10:32:10.404Z,21.20
2017-04-15T10:33:10.066Z,21.00
2017-04-15T10:34:09.716Z,21.00
2017-04-15T10:35:09.330Z,21.10
2017-04-15T10:36:09.704Z,21.00
2017-04-15T10:37:09.370Z,21.00
2017-04-15T10:38:09.138Z,20.80
2017-04-15T10:39:08.756Z,20.70
2017-04-15T10:40:08.420Z,20.60
2017-04-15T10:41:08.079Z,20.40
2017-04-15T10:42:07.698Z,20.20
2017-04-15T10:43:07.335Z,20.10
2017-04-15T10:44:07.021Z,20.10
2017-04-15T10:45:06.684Z,20.20
2017-04-15T10:46:06.318Z,20.30
2017-04-15T10:47:05.940Z,20.30
2017-04-15T10:48:05.609Z,20.40
2017-04-15T10:49:05.317Z,20.60
2017-04-15T10:50:04.991Z,20.80
2017-04-15T10:51:04.625Z,20.90
2017-04-15T10:52:04.294Z,20.80
2017-04-15T10:53:03.921Z,20.70
2017-04-15T10:54:03.577Z,20.70
2017-04-15T10:55:03.217Z,20.60
2017-04-15T10:56:02.888Z,20.50
2017-04-15T10:57:02.597Z,20.40
2017-04-15T10:58:02.250Z,20.50
2017-04-15T10:59:01.954Z,20.50
2017-04-15T11:00:01.596Z,20.40
2017-04-15T11:01:01.315Z,20.40
2017-04-15T11:02:01.001Z,20.20
2017-04-15T11:03:00.652Z,20.30
2017-04-15T11:04:00.266Z,20.30
2017-04-15T11:04:59.904Z,20.30
2017-04-15T11:06:00.277Z,20.30
2017-04-15T11:06:59.988Z,20.30
2017-04-15T11:07:59.690Z,20.30
2017-04-15T11:08:59.387Z,20.40
2017-04-15T11:09:59.740Z,20.40
2017-04-15T11:10:59.407Z,20.40
2017-04-15T11:11:59.039Z,20.30
2017-04-15T11:12:58.671Z,20.30
2017-04-15T11:13:58.337Z,20.20
2017-04-15T11:14:57.978Z,20.20
2017-04-15T11:15:57.612Z,20.20
2017-04-15T11:16:57.235Z,20.10
2017-04-15T11:17:56.903Z,19.80
2017-04-15T11:18:56.539Z,19.80
2017-04-15T11:19:56.304Z,19.80
2017-04-15T11:20:55.997Z,19.80
2017-04-15T11:21:55.627Z,19.80
2017-04-15T11:22:55.296Z,19.80
2017-04-15T11:23:54.927Z,20.00
2017-04-15T11:24:54.662Z,20.00
2017-04-15T11:25:54.383Z,20.00
2017-04-15T11:26:54.018Z,20.10
2017-04-15T11:27:53.643Z,20.10
2017-04-15T11:28:53.277Z,20.20
2017-04-15T11:29:52.905Z,20.20
2017-04-15T11:30:52.654Z,20.20
2017-04-15T11:31:52.293Z,20.20
2017-04-15T11:32:52.450Z,20.20
2017-04-15T11:33:52.068Z,20.40
2017-04-15T11:34:51.696Z,20.40
2017-04-15T11:35:51.369Z,20.50
2017-04-15T11:36:51.028Z,20.40
2017-04-15T11:37:50.706Z,20.40
2017-04-15T11:38:50.334Z,20.30
2017-04-15T11:39:50.727Z,20.20
2017-04-15T11:40:50.450Z,20.20
2017-04-15T11:41:50.100Z,20.10
2017-04-15T11:42:49.742Z,20.20
2017-04-15T11:43:49.399Z,20.30
2017-04-15T11:44:49.016Z,20.30
2017-04-15T11:45:48.741Z,20.30
2017-04-15T11:46:48.377Z,20.30
2017-04-15T11:47:48.018Z,20.20
2017-04-15T11:48:47.645Z,20.10
2017-04-15T11:49:47.312Z,20.00
2017-04-15T11:50:46.952Z,20.00
2017-04-15T11:51:46.610Z,20.00
2017-04-15T11:52:46.249Z,19.70
2017-04-15T11:53:45.975Z,19.70
2017-04-15T11:54:45.705Z,19.70
2017-04-15T11:55:45.389Z,19.80
2017-04-15T11:56:45.016Z,19.90
2017-04-15T11:57:44.644Z,19.80
2017-04-15T11:58:44.272Z,20.10
2017-04-15T11:59:43.913Z,20.30
2017-04-15T12:00:43.540Z,20.40
2017-04-15T12:01:43.927Z,20.60
2017-04-15T12:02:43.560Z,20.80
2017-04-15T12:03:43.213Z,20.90
2017-04-15T12:04:42.838Z,21.00
2017-04-15T12:05:42.455Z,21.00
2017-04-15T12:06:42.083Z,21.00
2017-04-15T12:07:41.744Z,21.00
2017-04-15T12:08:41.493Z,21.20
2017-04-15T12:09:41.131Z,21.20
2017-04-15T12:10:40.836Z,21.20
2017-04-15T12:11:40.464Z,21.10
2017-04-15T12:12:40.084Z,21.00
2017-04-15T12:13:39.751Z,21.00
2017-04-15T12:14:39.384Z,21.00
2017-04-15T12:15:39.078Z,21.00
2017-04-15T12:16:38.770Z,21.10
2017-04-15T12:17:38.711Z,21.30
2017-04-15T12:18:38.333Z,21.10
2017-04-15T12:19:38.000Z,21.00
2017-04-15T12:20:37.747Z,20.90
2017-04-15T12:21:37.368Z,20.60
2017-04-15T12:22:37.727Z,20.50
2017-04-15T12:23:37.365Z,20.20
2017-04-15T12:24:37.005Z,20.10
2017-04-15T12:25:36.707Z,19.90
2017-04-15T12:26:36.419Z,20.00
2017-04-15T12:27:36.044Z,20.10
2017-04-15T12:28:35.767Z,20.40
2017-04-15T12:29:35.469Z,20.40
2017-04-15T12:30:35.093Z,20.50
2017-04-15T12:31:34.884Z,20.40
2017-04-15T12:32:35.050Z,20.30
2017-04-15T12:33:34.768Z,20.40
2017-04-15T12:34:34.380Z,20.50
2017-04-15T12:35:34.018Z,20.50
2017-04-15T12:36:33.668Z,20.50
2017-04-15T12:37:33.348Z,20.50
2017-04-15T12:38:33.031Z,20.70
2017-04-15T12:39:32.664Z,20.70
2017-04-15T12:40:32.284Z,20.80
2017-04-15T12:41:31.915Z,20.80
2017-04-15T12:42:31.537Z,20.70
2017-04-15T12:43:31.945Z,20.60
2017-04-15T12:44:31.571Z,20.50
2017-04-15T12:45:31.208Z,20.20
2017-04-15T12:46:30.848Z,20.10
2017-04-15T12:47:30.499Z,20.10
2017-04-15T12:48:30.169Z,20.00
2017-04-15T12:49:29.853Z,19.70
2017-04-15T12:50:29.475Z,19.60
2017-04-15T12:51:29.130Z,19.40
2017-04-15T12:52:28.774Z,19.30
2017-04-15T12:53:28.423Z,19.30
2017-04-15T12:54:28.059Z,19.20
2017-04-15T12:55:27.694Z,19.00
2017-04-15T12:56:27.327Z,19.00
2017-04-15T12:57:27.704Z,18.90
2017-04-15T12:58:27.377Z,18.80
2017-04-15T12:59:27.029Z,18.70
2017-04-15T13:00:26.668Z,18.70